KPTS/PTS METAR and TAF weather

Enter ICAO airport designator
Station Type Date Time Source
KPTS METAR 2020/07/11 03:35 UTC NOAA

KPTS 110335Z AUTO 00000KT 10SM CLR 24/22 A3002 RMK AO2 T02390220


Station Type Date Time Source
KPTS Decoded METAR 2020/07/11 03:35 UTC NOAA

Station name not available
Jul 10, 2020 - 11:35 PM EDT / 2020.07.11 0335 UTC
Wind: Calm:0
Visibility: 10 mile(s):0
Sky conditions: clear
Temperature: 75.0 F (23.9 C)
Dew Point: 71.6 F (22.0 C)
Relative Humidity: 89%
Pressure (altimeter): 30.02 in. Hg (1016 hPa)
ob: KPTS 110335Z AUTO 00000KT 10SM CLR 24/22 A3002 RMK AO2 T02390220
cycle: 3

Station Type Date Time Source
KPTS TAF UTC NOAA

Error!

Example: see airport list